Time;durP1;ratioP1;P1;durP2;ratioP2;P2;SDS_P1;SDS_P2;PMS_P1;PMS_P2;Temp;Humidity;BMP_temperature;BMP_pressure;BME280_temperature;BME280_humidity;BME280_pressure;Samples;Min_cycle;Max_cycle;Signal;HPM_P1;HPM_P2
2021/05/05 00:02:22;;;;;;;10.25;5.82;;;8.30;54.80;;;;;;5137048;27;20103;-44
2021/05/05 00:04:47;;;;;;;12.75;5.70;;;8.30;54.80;;;;;;5136994;27;20619;-41
2021/05/05 00:07:13;;;;;;;9.07;5.20;;;8.30;54.90;;;;;;5136803;27;20019;-41
2021/05/05 00:09:39;;;;;;;11.20;4.45;;;8.30;55.00;;;;;;5136946;27;20504;-42
2021/05/05 00:12:05;;;;;;;13.13;5.68;;;8.20;54.90;;;;;;5136661;27;20122;-41
2021/05/05 00:14:30;;;;;;;7.38;5.10;;;8.30;55.00;;;;;;5136944;28;20027;-41
2021/05/05 00:16:56;;;;;;;9.07;5.30;;;8.20;55.00;;;;;;5137310;27;20031;-43
2021/05/05 00:19:22;;;;;;;12.07;5.00;;;8.20;55.10;;;;;;5139834;27;20452;-42
2021/05/05 00:21:48;;;;;;;9.18;5.07;;;8.20;55.10;;;;;;5141744;27;20363;-45
2021/05/05 00:24:14;;;;;;;10.38;5.22;;;8.20;55.10;;;;;;5141072;27;20314;-42
2021/05/05 00:26:40;;;;;;;8.77;4.97;;;8.20;55.10;;;;;;5141417;27;20024;-41
2021/05/05 00:29:06;;;;;;;9.13;5.10;;;8.20;55.10;;;;;;5140790;27;20031;-41
2021/05/05 00:31:33;;;;;;;8.13;4.65;;;8.20;55.20;;;;;;5141473;27;20394;-43
2021/05/05 00:33:58;;;;;;;7.20;4.70;;;8.20;55.20;;;;;;5140865;27;20027;-43
2021/05/05 00:36:24;;;;;;;8.55;5.10;;;8.20;55.10;;;;;;5140755;27;20062;-41
2021/05/05 00:38:50;;;;;;;9.30;4.82;;;8.20;55.10;;;;;;5140257;27;20096;-43
2021/05/05 00:41:17;;;;;;;8.85;4.55;;;8.20;55.10;;;;;;5141244;27;20031;-42
2021/05/05 00:43:43;;;;;;;8.07;4.97;;;8.20;55.10;;;;;;5140761;27;20314;-41
2021/05/05 00:46:09;;;;;;;10.35;4.85;;;8.20;55.00;;;;;;5141248;27;20038;-42
2021/05/05 00:48:34;;;;;;;8.68;4.55;;;8.20;54.90;;;;;;5140738;27;20027;-41
2021/05/05 00:51:02;;;;;;;8.90;4.68;;;8.20;54.80;;;;;;5140573;27;20031;-41
2021/05/05 00:53:28;;;;;;;6.30;4.43;;;8.20;54.80;;;;;;5140659;27;20028;-45
2021/05/05 00:55:54;;;;;;;7.97;5.50;;;8.20;54.70;;;;;;5140487;27;20038;-41
2021/05/05 00:58:20;;;;;;;7.28;4.70;;;8.20;54.70;;;;;;5140329;27;20115;-41
2021/05/05 01:00:49;;;;;;;7.63;4.72;;;8.20;54.70;;;;;;5140200;27;20348;-41
2021/05/05 01:03:14;;;;;;;9.63;4.80;;;8.20;54.70;;;;;;5140359;27;20076;-41
2021/05/05 01:05:40;;;;;;;9.15;5.45;;;8.20;54.70;;;;;;5139841;27;20027;-43
2021/05/05 01:08:07;;;;;;;9.25;5.43;;;8.20;54.80;;;;;;5140315;27;20027;-41
2021/05/05 01:10:34;;;;;;;13.35;5.28;;;8.20;54.80;;;;;;5140247;27;20360;-41
2021/05/05 01:13:00;;;;;;;11.93;5.60;;;8.20;54.80;;;;;;5140262;27;20028;-44
2021/05/05 01:15:26;;;;;;;12.88;5.60;;;8.20;54.80;;;;;;5140056;27;20416;-43
2021/05/05 01:17:51;;;;;;;14.70;5.50;;;8.20;54.90;;;;;;5139885;27;20322;-41
2021/05/05 01:20:18;;;;;;;11.77;5.13;;;8.20;55.00;;;;;;5139775;27;20023;-42
2021/05/05 01:22:43;;;;;;;9.38;5.10;;;8.20;55.00;;;;;;5140025;27;20028;-41
2021/05/05 01:25:12;;;;;;;7.18;4.75;;;8.20;55.00;;;;;;5139635;27;20326;-43
2021/05/05 01:27:40;;;;;;;8.73;5.07;;;8.20;55.10;;;;;;5139982;27;20038;-41
2021/05/05 01:30:07;;;;;;;11.32;4.90;;;8.20;55.00;;;;;;5139285;27;20033;-44
2021/05/05 01:32:32;;;;;;;7.07;5.18;;;8.10;55.00;;;;;;5139626;27;20053;-46
2021/05/05 01:34:58;;;;;;;11.23;5.20;;;8.10;55.00;;;;;;5121429;27;20027;-41
2021/05/05 01:37:24;;;;;;;11.65;5.50;;;8.10;55.00;;;;;;5139679;27;20150;-44
2021/05/05 01:39:50;;;;;;;9.65;5.15;;;8.10;55.10;;;;;;5139444;27;20134;-42
2021/05/05 01:42:15;;;;;;;9.23;5.72;;;8.10;55.20;;;;;;5139351;27;20036;-43
2021/05/05 01:44:41;;;;;;;13.45;6.05;;;8.10;55.20;;;;;;5139043;27;20421;-41
2021/05/05 01:47:10;;;;;;;11.07;5.75;;;8.10;55.20;;;;;;5139396;27;20031;-42
2021/05/05 01:49:42;;;;;;;9.15;5.82;;;8.10;55.40;;;;;;5139112;27;20038;-43
2021/05/05 01:52:08;;;;;;;7.85;5.65;;;8.10;55.40;;;;;;5139456;27;20023;-41
2021/05/05 01:54:36;;;;;;;8.15;5.63;;;8.00;55.40;;;;;;5138987;27;20068;-41
2021/05/05 01:57:35;;;;;;;8.18;5.40;;;8.00;55.80;;;;;;5139588;27;20042;-43
2021/05/05 02:00:03;;;;;;;9.48;5.80;;;8.00;55.60;;;;;;5138900;27;20096;-41
2021/05/05 02:02:30;;;;;;;8.02;5.18;;;8.00;55.70;;;;;;5138934;27;20027;-41
2021/05/05 02:04:56;;;;;;;13.85;5.55;;;8.00;55.80;;;;;;5139025;27;20121;-41
2021/05/05 02:07:23;;;;;;;6.68;4.15;;;7.90;55.90;;;;;;5138688;27;20023;-41
2021/05/05 02:09:49;;;;;;;6.53;4.60;;;7.90;55.90;;;;;;5139040;27;20031;-42
2021/05/05 02:12:15;;;;;;;8.77;5.13;;;7.90;56.10;;;;;;5139005;27;20322;-46
2021/05/05 02:14:42;;;;;;;8.27;4.95;;;7.90;56.20;;;;;;5138892;27;20043;-41
2021/05/05 02:17:08;;;;;;;12.23;5.22;;;7.80;56.30;;;;;;5138735;27;20126;-43
2021/05/05 02:19:33;;;;;;;9.48;4.90;;;7.80;56.40;;;;;;5138315;27;20481;-45
2021/05/05 02:21:59;;;;;;;10.20;5.78;;;7.80;56.60;;;;;;5138656;27;20052;-41
2021/05/05 02:24:25;;;;;;;9.68;5.28;;;7.80;56.70;;;;;;5138642;27;20069;-41
2021/05/05 02:26:50;;;;;;;9.00;4.85;;;7.70;56.90;;;;;;5139211;27;20233;-44
2021/05/05 02:29:16;;;;;;;8.50;5.25;;;7.70;57.50;;;;;;5138502;27;20126;-42
2021/05/05 02:31:42;;;;;;;11.40;5.10;;;7.70;57.20;;;;;;5138291;27;20033;-43
2021/05/05 02:34:09;;;;;;;8.65;4.93;;;7.70;57.30;;;;;;5138464;27;20031;-41
2021/05/05 02:36:34;;;;;;;7.65;5.00;;;7.60;57.30;;;;;;5137955;27;20445;-41
2021/05/05 02:39:04;;;;;;;9.55;5.25;;;7.70;57.60;;;;;;5138079;27;20031;-41
2021/05/05 02:41:30;;;;;;;7.22;4.78;;;7.60;57.60;;;;;;5137652;27;20027;-41
2021/05/05 02:43:56;;;;;;;8.80;5.35;;;7.60;57.60;;;;;;5138428;27;20027;-41
2021/05/05 02:46:21;;;;;;;8.75;5.53;;;7.60;57.70;;;;;;5137995;27;20024;-44
2021/05/05 02:48:47;;;;;;;12.77;5.72;;;7.60;57.80;;;;;;5137996;27;20031;-45
2021/05/05 02:51:13;;;;;;;9.48;5.63;;;7.60;57.90;;;;;;5138228;27;20027;-45
2021/05/05 02:53:38;;;;;;;8.30;5.60;;;7.70;58.00;;;;;;5138051;27;20042;-41
2021/05/05 02:56:04;;;;;;;9.02;5.35;;;7.70;58.10;;;;;;5137939;27;20031;-46
2021/05/05 02:58:30;;;;;;;9.25;4.85;;;7.70;58.10;;;;;;5137918;27;20119;-43
2021/05/05 03:00:56;;;;;;;11.23;5.90;;;7.70;58.20;;;;;;5137438;27;20102;-41
2021/05/05 03:03:22;;;;;;;10.68;5.70;;;7.70;58.30;;;;;;5138027;27;20040;-42
2021/05/05 03:05:47;;;;;;;9.27;5.78;;;7.70;59.00;;;;;;5137855;27;20159;-46
2021/05/05 03:08:14;;;;;;;9.10;5.63;;;7.70;58.50;;;;;;5137695;27;20035;-43
2021/05/05 03:10:40;;;;;;;9.63;5.68;;;7.70;58.70;;;;;;5119236;27;20038;-42
2021/05/05 03:13:05;;;;;;;9.48;5.63;;;7.70;58.90;;;;;;5137636;27;20073;-42
2021/05/05 03:15:31;;;;;;;7.85;5.78;;;7.80;59.10;;;;;;5119059;27;20054;-45
2021/05/05 03:17:57;;;;;;;9.40;5.75;;;7.80;59.20;;;;;;5137711;27;20031;-41
2021/05/05 03:20:23;;;;;;;12.05;6.13;;;7.80;59.20;;;;;;5137156;27;20019;-44
2021/05/05 03:22:49;;;;;;;11.90;5.80;;;7.80;59.30;;;;;;5137459;27;20047;-43
2021/05/05 03:25:14;;;;;;;8.45;5.97;;;7.90;59.40;;;;;;5137141;27;20056;-45
2021/05/05 03:27:40;;;;;;;12.52;5.90;;;7.90;59.50;;;;;;5137245;27;20410;-46
2021/05/05 03:30:07;;;;;;;12.25;6.75;;;7.90;59.60;;;;;;5137660;27;20076;-41
2021/05/05 03:32:33;;;;;;;10.30;6.40;;;7.90;59.80;;;;;;5137178;27;20430;-43
2021/05/05 03:34:58;;;;;;;10.20;6.80;;;7.90;60.00;;;;;;5137478;27;20088;-41
2021/05/05 03:37:24;;;;;;;8.15;5.93;;;8.00;60.30;;;;;;5137106;27;20039;-42
2021/05/05 03:39:50;;;;;;;11.82;6.47;;;8.00;60.40;;;;;;5137221;27;20042;-41
2021/05/05 03:42:16;;;;;;;19.95;7.75;;;8.10;60.60;;;;;;5136938;27;20084;-41
2021/05/05 03:44:42;;;;;;;13.10;7.57;;;8.10;60.70;;;;;;5137227;27;20023;-42
2021/05/05 03:47:08;;;;;;;13.45;7.90;;;8.10;60.90;;;;;;5137160;27;20347;-42
2021/05/05 03:49:33;;;;;;;12.15;7.53;;;8.20;61.00;;;;;;5136967;27;20024;-41
2021/05/05 03:51:59;;;;;;;13.30;7.43;;;8.30;61.20;;;;;;5136607;27;20033;-47
2021/05/05 03:54:25;;;;;;;13.25;7.50;;;8.30;61.50;;;;;;5136316;27;20023;-42
2021/05/05 03:56:51;;;;;;;12.55;7.95;;;8.40;61.70;;;;;;5136900;27;20353;-43
2021/05/05 03:59:16;;;;;;;14.73;8.10;;;8.40;62.00;;;;;;5136775;27;20031;-41
2021/05/05 04:01:42;;;;;;;10.30;7.45;;;8.50;62.10;;;;;;5137314;27;20020;-41
2021/05/05 04:04:08;;;;;;;11.35;7.50;;;8.60;62.50;;;;;;5131189;27;20035;-40
2021/05/05 04:06:33;;;;;;;13.30;7.95;;;8.60;62.60;;;;;;5136573;27;20030;-42
2021/05/05 04:08:59;;;;;;;16.75;8.40;;;8.70;62.80;;;;;;5135966;27;20031;-40
2021/05/05 04:11:25;;;;;;;17.05;8.23;;;8.80;63.00;;;;;;5136700;27;20035;-40
2021/05/05 04:13:51;;;;;;;17.90;7.53;;;8.80;63.20;;;;;;5135675;28;20043;-41
2021/05/05 04:16:16;;;;;;;11.25;7.22;;;8.90;63.50;;;;;;5136855;28;20042;-43
2021/05/05 04:18:42;;;;;;;12.75;7.80;;;9.00;63.80;;;;;;5136128;28;20035;-43
2021/05/05 04:21:09;;;;;;;11.77;7.03;;;9.10;64.00;;;;;;5136323;28;20034;-41
2021/05/05 04:23:35;;;;;;;16.98;7.85;;;9.20;64.20;;;;;;5136437;28;20023;-42
2021/05/05 04:26:02;;;;;;;23.80;15.23;;;9.30;64.40;;;;;;5136415;28;20072;-45
2021/05/05 04:28:28;;;;;;;9.18;7.00;;;9.40;64.70;;;;;;5135978;28;20035;-42
2021/05/05 04:30:54;;;;;;;14.63;7.00;;;9.50;65.20;;;;;;5136712;28;20054;-46
2021/05/05 04:33:20;;;;;;;29.90;9.05;;;9.60;65.40;;;;;;5135745;28;20043;-42
2021/05/05 04:35:46;;;;;;;12.65;6.85;;;9.70;65.40;;;;;;5136219;28;20107;-44
2021/05/05 04:38:13;;;;;;;20.08;8.73;;;9.80;65.80;;;;;;5136098;28;20031;-44
2021/05/05 04:40:39;;;;;;;16.30;9.95;;;10.00;66.00;;;;;;5136343;28;20023;-43
2021/05/05 04:43:05;;;;;;;14.40;8.00;;;10.10;65.90;;;;;;5135159;28;20026;-42
2021/05/05 04:45:31;;;;;;;10.77;6.60;;;10.20;66.20;;;;;;5135805;28;20031;-40
2021/05/05 04:47:59;;;;;;;14.90;7.57;;;10.30;66.60;;;;;;5135534;28;20027;-41
2021/05/05 04:50:25;;;;;;;12.00;6.88;;;10.40;66.50;;;;;;5135986;28;20280;-40
2021/05/05 04:52:51;;;;;;;15.40;7.43;;;10.50;66.50;;;;;;5135698;28;20027;-41
2021/05/05 04:55:17;;;;;;;10.70;6.85;;;10.70;66.60;;;;;;5135937;28;20291;-41
2021/05/05 04:57:42;;;;;;;13.68;7.13;;;10.80;66.50;;;;;;5135702;28;20042;-41
2021/05/05 05:00:09;;;;;;;22.75;8.30;;;10.90;66.40;;;;;;5117459;28;20028;-43
2021/05/05 05:02:35;;;;;;;9.18;6.00;;;11.00;66.40;;;;;;5135565;28;20027;-41
2021/05/05 05:05:03;;;;;;;16.08;9.07;;;11.20;66.40;;;;;;5138049;27;20031;-40
2021/05/05 05:07:29;;;;;;;12.38;7.88;;;11.30;66.40;;;;;;5139177;27;20039;-41
2021/05/05 05:09:55;;;;;;;16.85;5.70;;;11.40;66.30;;;;;;5139450;27;20039;-41
2021/05/05 05:12:21;;;;;;;6.20;4.32;;;11.50;66.20;;;;;;5139506;27;20027;-41
2021/05/05 05:14:46;;;;;;;6.03;4.82;;;11.70;66.00;;;;;;5139520;27;20347;-40
2021/05/05 05:17:12;;;;;;;14.18;5.00;;;11.80;65.80;;;;;;5139061;27;20085;-41
2021/05/05 05:19:37;;;;;;;8.07;4.95;;;11.90;65.80;;;;;;5139283;27;20028;-42
2021/05/05 05:22:03;;;;;;;17.17;5.55;;;12.10;65.60;;;;;;5139416;27;20322;-42
2021/05/05 05:24:29;;;;;;;7.57;4.53;;;12.20;65.10;;;;;;5139206;27;20406;-42
2021/05/05 05:26:55;;;;;;;12.48;5.45;;;12.30;64.40;;;;;;5139354;27;20023;-41
2021/05/05 05:29:20;;;;;;;8.23;4.68;;;12.40;63.80;;;;;;5133903;27;20019;-42
2021/05/05 05:31:48;;;;;;;17.00;6.07;;;12.50;63.30;;;;;;5139506;27;20027;-41
2021/05/05 05:34:13;;;;;;;7.97;5.45;;;12.60;63.00;;;;;;5138432;27;20043;-41
2021/05/05 05:36:40;;;;;;;10.50;5.10;;;12.60;62.80;;;;;;5138883;27;20131;-42
2021/05/05 05:39:06;;;;;;;13.93;8.10;;;12.70;62.90;;;;;;5138324;27;20169;-41
2021/05/05 05:41:32;;;;;;;12.25;8.23;;;12.70;62.90;;;;;;5138549;27;20055;-41
2021/05/05 05:43:58;;;;;;;10.88;6.60;;;12.80;62.80;;;;;;5137966;27;20062;-41
2021/05/05 05:46:24;;;;;;;12.15;5.60;;;12.90;62.70;;;;;;5139285;27;20088;-44
2021/05/05 05:48:49;;;;;;;12.50;7.03;;;13.00;62.60;;;;;;5137884;27;20080;-41
2021/05/05 05:51:15;;;;;;;7.65;5.13;;;13.10;62.70;;;;;;5138948;27;20042;-41
2021/05/05 05:53:41;;;;;;;13.35;5.97;;;13.20;62.20;;;;;;5138236;27;20067;-41
2021/05/05 05:56:07;;;;;;;13.63;4.50;;;13.30;61.70;;;;;;5138787;27;20031;-41
2021/05/05 05:58:33;;;;;;;12.13;4.97;;;13.40;61.40;;;;;;5138130;27;20318;-41
2021/05/05 06:00:58;;;;;;;5.85;3.40;;;13.40;61.30;;;;;;5138768;27;20311;-41
2021/05/05 06:03:24;;;;;;;12.45;5.38;;;13.50;61.00;;;;;;5137831;27;20027;-43
2021/05/05 06:05:50;;;;;;;7.60;4.57;;;13.60;61.00;;;;;;5138425;27;20023;-41
2021/05/05 06:08:15;;;;;;;14.90;5.20;;;13.60;60.60;;;;;;5137943;27;20415;-42
2021/05/05 06:10:41;;;;;;;13.18;4.82;;;13.70;60.40;;;;;;5138778;27;20023;-41
2021/05/05 06:13:07;;;;;;;5.88;4.35;;;13.70;60.60;;;;;;5138053;27;20031;-43
2021/05/05 06:15:33;;;;;;;7.93;4.50;;;13.80;60.60;;;;;;5137598;27;20106;-41
2021/05/05 06:17:58;;;;;;;7.35;4.40;;;13.80;60.70;;;;;;5137930;27;20038;-42
2021/05/05 06:20:24;;;;;;;8.23;3.53;;;13.90;60.80;;;;;;5138178;27;20027;-44
2021/05/05 06:22:50;;;;;;;6.80;3.55;;;13.90;60.70;;;;;;5138015;27;20318;-41
2021/05/05 06:25:16;;;;;;;12.27;5.40;;;14.10;60.50;;;;;;5137073;27;20023;-42
2021/05/05 06:27:41;;;;;;;7.80;3.90;;;14.10;60.20;;;;;;5138088;27;20045;-42
2021/05/05 06:30:09;;;;;;;16.65;4.85;;;14.20;60.10;;;;;;5138367;27;20104;-44
2021/05/05 06:32:36;;;;;;;6.78;4.15;;;14.20;59.80;;;;;;5138218;27;20141;-41
2021/05/05 06:35:03;;;;;;;10.88;4.07;;;14.30;59.90;;;;;;5137269;27;20310;-41
2021/05/05 06:37:29;;;;;;;9.20;4.72;;;14.40;59.80;;;;;;5138206;27;20057;-42
2021/05/05 06:39:57;;;;;;;10.45;5.07;;;14.50;59.70;;;;;;5137995;27;20114;-43
2021/05/05 06:42:23;;;;;;;21.75;9.38;;;14.60;59.60;;;;;;5137670;27;20034;-42
2021/05/05 06:44:49;;;;;;;5.95;3.95;;;14.60;59.40;;;;;;5134602;27;20023;-41
2021/05/05 06:47:14;;;;;;;10.82;5.80;;;14.70;59.20;;;;;;5137802;27;20153;-41
2021/05/05 06:49:40;;;;;;;6.13;3.40;;;14.80;59.30;;;;;;5135658;27;20314;-41
2021/05/05 06:52:07;;;;;;;12.88;3.63;;;14.90;59.30;;;;;;5134445;27;20031;-40
2021/05/05 06:54:33;;;;;;;5.70;3.85;;;14.90;59.10;;;;;;5137103;27;20038;-42
2021/05/05 06:56:59;;;;;;;12.07;4.60;;;15.00;58.70;;;;;;5137078;27;20087;-43
2021/05/05 06:59:24;;;;;;;10.32;4.57;;;15.10;58.60;;;;;;5137066;27;20026;-41
2021/05/05 07:01:50;;;;;;;6.55;4.13;;;15.20;58.60;;;;;;5137488;27;20467;-43
2021/05/05 07:04:16;;;;;;;9.25;3.75;;;15.20;58.30;;;;;;5136897;27;20085;-41
2021/05/05 07:06:41;;;;;;;5.00;3.72;;;15.30;58.10;;;;;;5135409;27;20091;-43
2021/05/05 07:09:07;;;;;;;72.45;6.93;;;15.40;58.20;;;;;;5135000;27;20031;-43
2021/05/05 07:11:37;;;;;;;7.55;3.92;;;15.50;58.00;;;;;;5136653;27;20027;-43
2021/05/05 07:14:04;;;;;;;7.78;3.35;;;15.60;58.00;;;;;;5136535;27;20117;-44
2021/05/05 07:16:30;;;;;;;6.72;3.20;;;15.70;57.60;;;;;;5136975;27;20057;-43
2021/05/05 07:18:56;;;;;;;10.48;3.97;;;15.80;57.30;;;;;;5135447;27;20395;-41
2021/05/05 07:21:22;;;;;;;15.23;5.07;;;15.90;57.30;;;;;;5136253;27;20054;-44
2021/05/05 07:23:48;;;;;;;9.25;4.30;;;16.00;57.00;;;;;;5136873;27;20114;-42
2021/05/05 07:26:15;;;;;;;6.03;3.75;;;16.10;56.70;;;;;;5118028;27;20081;-41
2021/05/05 07:28:41;;;;;;;9.57;4.18;;;16.10;56.30;;;;;;5135884;27;20509;-41
2021/05/05 07:31:07;;;;;;;8.10;3.40;;;16.20;56.10;;;;;;5136076;27;20019;-41
2021/05/05 07:33:35;;;;;;;4.65;3.08;;;16.30;55.90;;;;;;5136535;27;20080;-41
2021/05/05 07:36:01;;;;;;;8.70;2.67;;;16.40;55.50;;;;;;5135883;27;20074;-41
2021/05/05 07:46:41;;;;;;;3.88;2.58;;;16.80;55.00;;;;;;5136588;27;20027;-41
2021/05/05 07:49:10;;;;;;;13.70;2.50;;;16.90;54.40;;;;;;5136532;27;20107;-42
2021/05/05 07:51:35;;;;;;;9.15;2.55;;;16.90;53.70;;;;;;5136261;27;20035;-41
2021/05/05 07:54:01;;;;;;;7.57;2.92;;;17.10;53.90;;;;;;5135814;27;20388;-43
2021/05/05 07:56:27;;;;;;;10.80;3.50;;;17.20;53.70;;;;;;5136285;27;20485;-41
2021/05/05 07:58:53;;;;;;;8.88;2.78;;;17.30;53.20;;;;;;5136129;27;20028;-41
2021/05/05 08:01:19;;;;;;;9.18;3.08;;;17.40;53.00;;;;;;5136094;27;20102;-43
2021/05/05 08:03:45;;;;;;;7.25;2.80;;;17.50;52.60;;;;;;5136132;27;20027;-42
2021/05/05 08:06:11;;;;;;;6.20;2.55;;;17.60;52.00;;;;;;5136470;27;20027;-39
2021/05/05 08:08:37;;;;;;;3.50;2.58;;;17.70;51.60;;;;;;5136180;27;20035;-43
2021/05/05 08:11:03;;;;;;;6.60;2.65;;;17.80;51.00;;;;;;5135891;27;20015;-39
2021/05/05 08:13:29;;;;;;;7.38;2.33;;;17.90;51.50;;;;;;5135892;27;20027;-42
2021/05/05 08:15:56;;;;;;;8.10;2.78;;;18.00;50.40;;;;;;5135612;28;20019;-42
2021/05/05 08:18:22;;;;;;;10.93;2.47;;;18.10;50.70;;;;;;5135880;28;20481;-39
2021/05/05 08:20:48;;;;;;;17.85;3.42;;;18.30;50.00;;;;;;5117675;28;20023;-40
2021/05/05 08:23:16;;;;;;;18.80;3.40;;;18.40;49.50;;;;;;5135661;28;20044;-43
2021/05/05 08:25:42;;;;;;;9.30;2.38;;;18.60;49.10;;;;;;5135739;28;20023;-40
2021/05/05 08:28:08;;;;;;;8.23;2.67;;;18.70;49.10;;;;;;5132160;28;20378;-40
2021/05/05 08:30:34;;;;;;;8.35;2.72;;;18.90;48.80;;;;;;5135870;28;20052;-40
2021/05/05 08:33:01;;;;;;;16.85;2.75;;;19.00;48.50;;;;;;5135728;28;20062;-41
2021/05/05 08:35:26;;;;;;;5.78;2.50;;;19.20;47.70;;;;;;5135298;28;20468;-42
2021/05/05 08:37:52;;;;;;;7.50;3.22;;;19.30;47.20;;;;;;5135841;28;20035;-44
2021/05/05 08:40:19;;;;;;;6.20;2.20;;;19.40;47.10;;;;;;5119002;27;20437;-44
2021/05/05 08:42:46;;;;;;;12.93;2.20;;;19.50;46.80;;;;;;5139195;27;20066;-43
2021/05/05 08:45:21;;;;;;;10.38;2.30;;;19.70;46.60;;;;;;5139432;27;20349;-43
2021/05/05 08:47:48;;;;;;;24.23;8.38;;;19.80;46.00;;;;;;5139720;27;20053;-43
2021/05/05 08:50:16;;;;;;;10.43;2.58;;;19.80;46.10;;;;;;5139837;27;20027;-44
2021/05/05 08:52:42;;;;;;;3.35;2.10;;;19.90;45.50;;;;;;5139647;27;20034;-41
2021/05/05 08:55:10;;;;;;;6.15;2.40;;;19.80;45.30;;;;;;5139487;27;20422;-42
2021/05/05 08:57:36;;;;;;;9.00;3.10;;;19.80;45.50;;;;;;5138835;27;20326;-43
2021/05/05 09:00:06;;;;;;;9.07;5.13;;;19.70;45.50;;;;;;5138717;27;20027;-43
2021/05/05 09:02:31;;;;;;;9.23;3.50;;;19.70;45.50;;;;;;5139691;27;20095;-41
2021/05/05 09:05:04;;;;;;;9.48;3.92;;;19.70;45.50;;;;;;5139709;27;20442;-43
2021/05/05 09:07:32;;;;;;;6.43;3.38;;;19.60;45.40;;;;;;5139664;27;20027;-42
2021/05/05 09:10:10;;;;;;;5.18;2.53;;;19.60;45.20;;;;;;5139709;27;20055;-43
2021/05/05 09:12:41;;;;;;;16.20;4.13;;;19.60;45.30;;;;;;5136397;27;20035;-44
2021/05/05 09:15:11;;;;;;;7.63;2.80;;;19.60;45.60;;;;;;5139029;27;20029;-41
2021/05/05 09:17:48;;;;;;;6.93;2.80;;;19.60;45.60;;;;;;5138956;27;20031;-41
2021/05/05 09:20:17;;;;;;;10.65;2.75;;;19.70;45.90;;;;;;5138999;27;20117;-41
2021/05/05 09:22:52;;;;;;;10.75;2.75;;;19.70;45.30;;;;;;5138820;27;20056;-41
2021/05/05 09:25:25;;;;;;;8.77;2.53;;;19.70;45.10;;;;;;5139494;27;20023;-40
2021/05/05 09:28:22;;;;;;;9.00;2.60;;;19.70;45.20;;;;;;5139240;27;20023;-43
2021/05/05 09:30:50;;;;;;;4.30;2.05;;;19.80;45.00;;;;;;5139478;27;20042;-46
2021/05/05 09:33:32;;;;;;;9.27;3.05;;;19.90;45.40;;;;;;5138688;27;20046;-46
2021/05/05 09:36:01;;;;;;;9.07;3.13;;;20.00;45.60;;;;;;5139097;27;20527;-45
2021/05/05 09:38:50;;;;;;;10.25;4.70;;;20.10;44.70;;;;;;5138730;27;20027;-41
2021/05/05 09:41:21;;;;;;;54.72;4.82;;;20.20;44.30;;;;;;5139212;27;20035;-40
2021/05/05 09:43:48;;;;;;;8.45;3.83;;;20.30;44.20;;;;;;5138014;27;20153;-43
2021/05/05 09:46:41;;;;;;;6.93;2.35;;;20.40;44.50;;;;;;5139061;27;20024;-41
2021/05/05 09:49:26;;;;;;;12.75;2.67;;;20.50;44.40;;;;;;5138435;27;20326;-42
2021/05/05 09:52:05;;;;;;;12.15;3.20;;;20.60;43.60;;;;;;5138063;27;20419;-40
2021/05/05 09:54:32;;;;;;;7.47;2.50;;;20.70;43.00;;;;;;5138211;27;20023;-41
2021/05/05 09:57:20;;;;;;;6.80;2.50;;;20.70;42.90;;;;;;5138420;27;20063;-43
2021/05/05 10:00:04;;;;;;;20.92;3.97;;;20.70;42.80;;;;;;5138100;27;20050;-43
2021/05/05 10:02:47;;;;;;;4.97;2.28;;;20.70;43.10;;;;;;5134781;27;20436;-42
2021/05/05 10:05:20;;;;;;;8.75;2.75;;;20.70;43.40;;;;;;5138417;27;20023;-41
2021/05/05 10:08:08;;;;;;;12.18;4.55;;;20.80;43.70;;;;;;5138092;27;20023;-40
2021/05/05 10:10:38;;;;;;;9.95;2.72;;;20.90;44.00;;;;;;5138705;27;20027;-40
2021/05/05 10:13:06;;;;;;;149.82;11.65;;;21.00;43.20;;;;;;5138404;27;20110;-45
2021/05/05 10:15:36;;;;;;;28.65;4.03;;;21.20;42.20;;;;;;5138436;27;20039;-41
2021/05/05 10:18:03;;;;;;;10.43;2.90;;;21.30;41.80;;;;;;5119700;27;20368;-46
2021/05/05 10:20:30;;;;;;;23.02;3.22;;;21.40;41.90;;;;;;5138311;27;20065;-43
2021/05/05 10:23:00;;;;;;;32.85;3.72;;;21.50;41.70;;;;;;5136290;27;20061;-47
2021/05/05 10:25:27;;;;;;;7.03;2.47;;;21.50;41.30;;;;;;5138171;27;20023;-43
2021/05/05 10:27:53;;;;;;;24.20;4.30;;;21.50;41.30;;;;;;5136743;27;20123;-45
2021/05/05 10:30:28;;;;;;;10.65;2.50;;;21.50;40.90;;;;;;5138299;27;20356;-42
2021/05/05 10:32:53;;;;;;;7.07;2.55;;;21.50;41.00;;;;;;5138092;27;20313;-44
2021/05/05 10:35:22;;;;;;;31.42;3.28;;;21.50;41.40;;;;;;5137835;27;20111;-41
2021/05/05 10:38:00;;;;;;;7.13;2.35;;;21.60;41.50;;;;;;5137368;27;20035;-40
2021/05/05 10:40:32;;;;;;;18.65;2.65;;;21.60;41.00;;;;;;5119551;27;20047;-43
2021/05/05 10:43:02;;;;;;;12.52;3.30;;;21.70;41.10;;;;;;5119359;27;20100;-43
2021/05/05 10:45:38;;;;;;;17.05;2.60;;;21.80;41.00;;;;;;5137404;27;20037;-40
2021/05/05 10:48:15;;;;;;;8.02;2.25;;;21.90;41.00;;;;;;5137590;27;20032;-40
2021/05/05 10:51:01;;;;;;;4.55;2.20;;;22.10;40.90;;;;;;5138001;27;20369;-43
2021/05/05 10:53:39;;;;;;;5.57;2.30;;;22.30;40.70;;;;;;5136903;27;20034;-43
2021/05/05 10:56:24;;;;;;;8.88;5.18;;;22.50;40.50;;;;;;5136332;27;20027;-42
2021/05/05 10:59:07;;;;;;;11.85;2.20;;;22.60;39.70;;;;;;5132268;27;20031;-42
2021/05/05 11:01:38;;;;;;;11.30;2.70;;;22.70;39.10;;;;;;5136680;27;20027;-40
2021/05/05 11:04:05;;;;;;;9.73;2.15;;;22.80;38.60;;;;;;5136560;27;20034;-43
2021/05/05 11:06:35;;;;;;;10.13;3.13;;;22.80;38.20;;;;;;5136789;27;20023;-44
2021/05/05 11:09:12;;;;;;;14.90;3.75;;;22.80;38.50;;;;;;5136931;27;20046;-44
2021/05/05 11:11:44;;;;;;;5.13;2.13;;;22.70;38.90;;;;;;5136583;27;20411;-43
2021/05/05 11:14:32;;;;;;;21.33;2.63;;;22.70;38.60;;;;;;5136806;27;20422;-43
2021/05/05 11:17:00;;;;;;;11.32;2.75;;;22.70;38.70;;;;;;5136503;27;20023;-44
2021/05/05 11:19:40;;;;;;;3.72;2.30;;;22.80;38.60;;;;;;5137017;27;20370;-44
2021/05/05 11:22:07;;;;;;;5.70;2.42;;;22.80;38.30;;;;;;5137035;27;20132;-40
2021/05/05 11:24:40;;;;;;;7.60;1.90;;;22.80;38.60;;;;;;5137164;27;20061;-44
2021/05/05 11:27:11;;;;;;;4.68;2.20;;;22.80;38.90;;;;;;5136942;27;20067;-42
2021/05/05 11:29:44;;;;;;;9.25;2.95;;;22.80;38.90;;;;;;5136772;27;20122;-43
2021/05/05 11:32:34;;;;;;;19.67;2.58;;;22.80;38.30;;;;;;5136285;27;20118;-44
2021/05/05 11:35:00;;;;;;;8.07;2.65;;;22.80;38.40;;;;;;5135703;27;20116;-44
2021/05/05 11:37:28;;;;;;;24.42;2.65;;;22.70;38.90;;;;;;5136160;27;20043;-41
2021/05/05 11:40:02;;;;;;;8.88;2.15;;;22.60;38.50;;;;;;5136059;27;20039;-40
2021/05/05 11:42:38;;;;;;;7.50;3.67;;;22.60;38.80;;;;;;5135803;27;20023;-45
2021/05/05 11:45:07;;;;;;;8.55;3.10;;;22.50;38.50;;;;;;5136563;27;20091;-41
2021/05/05 11:47:38;;;;;;;13.05;2.75;;;22.40;38.60;;;;;;5135625;27;20025;-41
2021/05/05 11:50:06;;;;;;;22.02;6.30;;;22.40;39.00;;;;;;5136081;27;20031;-41
2021/05/05 11:52:40;;;;;;;7.85;4.72;;;22.30;39.10;;;;;;5135978;27;20045;-41
2021/05/05 11:55:09;;;;;;;15.52;4.72;;;22.30;39.00;;;;;;5136516;27;20295;-41
2021/05/05 11:57:38;;;;;;;8.25;2.03;;;22.30;38.90;;;;;;5135677;27;20031;-41
2021/05/05 12:00:13;;;;;;;10.67;2.70;;;22.30;39.10;;;;;;5136563;27;20058;-41
2021/05/05 12:02:50;;;;;;;5.72;2.55;;;22.30;39.50;;;;;;5135998;27;20305;-41
2021/05/05 12:05:36;;;;;;;2.70;2.00;;;22.40;39.50;;;;;;5136656;27;20039;-43
2021/05/05 12:08:23;;;;;;;9.75;2.28;;;22.50;39.00;;;;;;5135603;27;20054;-41
2021/05/05 12:11:00;;;;;;;7.70;2.83;;;22.50;38.70;;;;;;5136388;27;20410;-41
2021/05/05 12:13:28;;;;;;;8.63;2.72;;;22.40;38.70;;;;;;5135163;27;20058;-40
2021/05/05 12:16:18;;;;;;;6.93;2.10;;;22.40;38.50;;;;;;5134842;27;20027;-40
2021/05/05 12:18:49;;;;;;;5.43;2.13;;;22.30;38.90;;;;;;5135295;28;20031;-41
2021/05/05 12:21:16;;;;;;;11.13;3.03;;;22.20;39.30;;;;;;5136623;28;20031;-42
2021/05/05 12:23:47;;;;;;;10.27;3.63;;;22.20;39.90;;;;;;5135752;28;20038;-40
2021/05/05 12:26:17;;;;;;;5.00;2.55;;;22.20;40.10;;;;;;5136513;28;20031;-42
2021/05/05 12:28:45;;;;;;;21.45;2.72;;;22.30;39.90;;;;;;5135789;28;20032;-43
2021/05/05 12:31:12;;;;;;;11.30;2.58;;;22.30;39.40;;;;;;5136286;28;20116;-42
2021/05/05 12:33:40;;;;;;;9.77;2.15;;;22.30;39.00;;;;;;5135233;28;20414;-41
2021/05/05 12:36:12;;;;;;;16.10;2.30;;;22.30;38.90;;;;;;5135964;28;20055;-41
2021/05/05 12:38:41;;;;;;;19.40;4.03;;;22.20;38.70;;;;;;5134979;28;20118;-41
2021/05/05 12:41:09;;;;;;;5.28;2.13;;;22.20;38.70;;;;;;5136177;28;20039;-44
2021/05/05 12:43:36;;;;;;;13.48;2.63;;;22.10;38.80;;;;;;5135543;28;20091;-41
2021/05/05 12:46:03;;;;;;;8.98;2.33;;;22.00;39.00;;;;;;5135534;28;20023;-40
2021/05/05 12:48:38;;;;;;;10.35;3.05;;;21.90;39.30;;;;;;5135254;28;20531;-47
2021/05/05 12:51:13;;;;;;;6.57;2.47;;;21.80;39.20;;;;;;5136168;28;20039;-44
2021/05/05 12:53:46;;;;;;;3.80;2.10;;;21.80;39.50;;;;;;5135443;28;20015;-40
2021/05/05 12:56:12;;;;;;;7.82;2.92;;;21.80;39.50;;;;;;5136474;28;20345;-40
2021/05/05 12:58:43;;;;;;;9.38;2.30;;;21.80;39.50;;;;;;5134937;28;20114;-40
2021/05/05 13:01:14;;;;;;;6.00;2.22;;;21.80;39.60;;;;;;5136000;28;20328;-41